^^
Meteo Knjazevac Station Historical Data
Daily Summary for February 13, 2021 Units:  Both    English   Metric
Daily Weekly Monthly Yearly Custom
  High: Low: Average:
Temperature: 69.4 °F /  20.8 °C 59.9 °F /  15.5 °C 63.3 °F /  17.4 °C
Dew Point: 60.6 °F /  15.9 °C 56.5 °F /  13.6 °C 58.2 °F /  14.6 °C
Humidity: 90% 73% 84%
Wind Speed: 2mph /  3.2km/h - 0.6mph /  1km/h
Wind Gust: 5mph /  8km/h - -
Wind- - WNW
Pressure: 30.04 in /  1017.2 hPa 30.02 in /  1016.5 hPa -
Precipitation: 0.00 in /  0 mm    
Historical Graphs
 
 
Tabular Data for February 13, 2021
Time Temperature Dew Point Pressure Wind Wind Speed Wind Gust Humidity Rainfall Rate (Hourly) solar Conditions
00:00 69.4 °F /  20.8 °C 60.4 °F /  15.8 °C 30.03in /  1016.8hPa Calm   3mph /  4.8km/h 73% 0.00in /  0mm 0 W/m2
00:10 69.3 °F /  20.7 °C 60.6 °F /  15.9 °C 30.03in /  1016.8hPa Calm   3mph /  4.8km/h 74% 0.00in /  0mm 0 W/m2
00:20 68.7 °F /  20.4 °C 60.1 °F /  15.6 °C 30.03in /  1016.8hPa Calm   2mph /  3.2km/h 74% 0.00in /  0mm 0 W/m2
00:30 68.5 °F /  20.3 °C 59.9 °F /  15.5 °C 30.02in /  1016.5hPa North 1mph /  1.6km/h 2mph /  3.2km/h 74% 0.00in /  0mm 0 W/m2
00:40 68.1 °F /  20.1 °C 59.9 °F /  15.5 °C 30.02in /  1016.5hPa Calm   2mph /  3.2km/h 75% 0.00in /  0mm 0 W/m2
00:50 67.5 °F /  19.7 °C 60 °F /  15.6 °C 30.02in /  1016.5hPa Calm   2mph /  3.2km/h 77% 0.00in /  0mm 0 W/m2
01:00 66.9 °F /  19.4 °C 59.8 °F /  15.4 °C 30.02in /  1016.5hPa Calm   1mph /  1.6km/h 78% 0.00in /  0mm 0 W/m2
01:10 66.5 °F /  19.2 °C 59.8 °F /  15.4 °C 30.02in /  1016.5hPa WNW 2mph /  3.2km/h 3mph /  4.8km/h 79% 0.00in /  0mm 0 W/m2
01:20 66.1 °F /  18.9 °C 59.4 °F /  15.2 °C 30.02in /  1016.5hPa West 1mph /  1.6km/h 3mph /  4.8km/h 79% 0.00in /  0mm 0 W/m2
01:30 65.7 °F /  18.7 °C 59 °F /  15 °C 30.02in /  1016.5hPa West 1mph /  1.6km/h 5mph /  8km/h 79% 0.00in /  0mm 0 W/m2
01:40 65.5 °F /  18.6 °C 59.1 °F /  15.1 °C 30.02in /  1016.5hPa Calm   2mph /  3.2km/h 80% 0.00in /  0mm 0 W/m2
01:50 65.1 °F /  18.4 °C 58.7 °F /  14.8 °C 30.02in /  1016.5hPa Calm   2mph /  3.2km/h 80% 0.00in /  0mm 0 W/m2
02:00 64.6 °F /  18.1 °C 58.6 °F /  14.8 °C 30.03in /  1016.8hPa WSW 2mph /  3.2km/h 3mph /  4.8km/h 81% 0.00in /  0mm 0 W/m2
02:10 64.4 °F /  18 °C 58.4 °F /  14.7 °C 30.03in /  1016.8hPa NW 1mph /  1.6km/h 3mph /  4.8km/h 81% 0.00in /  0mm 0 W/m2
02:20 64.2 °F /  17.9 °C 58.6 °F /  14.8 °C 30.03in /  1016.8hPa West 2mph /  3.2km/h 3mph /  4.8km/h 82% 0.00in /  0mm 0 W/m2
02:30 64.2 °F /  17.9 °C 58.3 °F /  14.6 °C 30.03in /  1016.8hPa Calm   3mph /  4.8km/h 81% 0.00in /  0mm 0 W/m2
02:40 64 °F /  17.8 °C 58.1 °F /  14.5 °C 30.03in /  1016.8hPa Calm   2mph /  3.2km/h 81% 0.00in /  0mm 0 W/m2
02:50 63.7 °F /  17.6 °C 58.4 °F /  14.7 °C 30.03in /  1016.8hPa Calm   2mph /  3.2km/h 83% 0.00in /  0mm 0 W/m2
03:00 63.3 °F /  17.4 °C 58.1 °F /  14.5 °C 30.03in /  1016.8hPa Calm   1mph /  1.6km/h 83% 0.00in /  0mm 0 W/m2
03:10 63.1 °F /  17.3 °C 58.2 °F /  14.6 °C 30.03in /  1016.8hPa Calm   2mph /  3.2km/h 84% 0.00in /  0mm 0 W/m2
03:20 63.1 °F /  17.3 °C 58.2 °F /  14.6 °C 30.03in /  1016.8hPa Calm   2mph /  3.2km/h 84% 0.00in /  0mm 0 W/m2
03:30 62.6 °F /  17 °C 57.7 °F /  14.3 °C 30.03in /  1016.8hPa Calm   2mph /  3.2km/h 84% 0.00in /  0mm 0 W/m2
03:40 62.2 °F /  16.8 °C 57.7 °F /  14.3 °C 30.03in /  1016.8hPa West 1mph /  1.6km/h 3mph /  4.8km/h 85% 0.00in /  0mm 0 W/m2
03:50 61.9 °F /  16.6 °C 57.3 °F /  14.1 °C 30.04in /  1017.2hPa West 1mph /  1.6km/h 2mph /  3.2km/h 85% 0.00in /  0mm 0 W/m2
04:00 61.7 °F /  16.5 °C 57.1 °F /  13.9 °C 30.03in /  1016.8hPa West 1mph /  1.6km/h 2mph /  3.2km/h 85% 0.00in /  0mm 0 W/m2
04:10 61.2 °F /  16.2 °C 56.9 °F /  13.8 °C 30.03in /  1016.8hPa West 1mph /  1.6km/h 3mph /  4.8km/h 86% 0.00in /  0mm 0 W/m2
04:20 61.2 °F /  16.2 °C 56.9 °F /  13.8 °C 30.03in /  1016.8hPa West 1mph /  1.6km/h 5mph /  8km/h 86% 0.00in /  0mm 0 W/m2
04:30 61.2 °F /  16.2 °C 56.9 °F /  13.8 °C 30.04in /  1017.2hPa West 2mph /  3.2km/h 5mph /  8km/h 86% 0.00in /  0mm 0 W/m2
04:40 61 °F /  16.1 °C 57.4 °F /  14.1 °C 30.04in /  1017.2hPa West 2mph /  3.2km/h 4mph /  6.4km/h 88% 0.00in /  0mm 0 W/m2
04:50 61 °F /  16.1 °C 57.4 °F /  14.1 °C 30.04in /  1017.2hPa West 1mph /  1.6km/h 3mph /  4.8km/h 88% 0.00in /  0mm 0 W/m2
05:00 60.6 °F /  15.9 °C 57 °F /  13.9 °C 30.03in /  1016.8hPa Calm   2mph /  3.2km/h 88% 0.00in /  0mm 0 W/m2
05:10 60.4 °F /  15.8 °C 56.9 °F /  13.8 °C 30.03in /  1016.8hPa West 1mph /  1.6km/h 2mph /  3.2km/h 88% 0.00in /  0mm 7 W/m2
05:20 60.3 °F /  15.7 °C 56.7 °F /  13.7 °C 30.03in /  1016.8hPa West 1mph /  1.6km/h 2mph /  3.2km/h 88% 0.00in /  0mm 13 W/m2
05:30 60.1 °F /  15.6 °C 56.8 °F /  13.8 °C 30.03in /  1016.8hPa Calm   2mph /  3.2km/h 89% 0.00in /  0mm 23 W/m2
05:40 60.3 °F /  15.7 °C 57 °F /  13.9 °C 30.03in /  1016.8hPa Calm   1mph /  1.6km/h 89% 0.00in /  0mm 32 W/m2
05:50 60.1 °F /  15.6 °C 56.5 °F /  13.6 °C 30.03in /  1016.8hPa Calm   2mph /  3.2km/h 88% 0.00in /  0mm 43 W/m2
06:00 59.9 °F /  15.5 °C 56.6 °F /  13.7 °C 30.03in /  1016.8hPa NW 1mph /  1.6km/h 2mph /  3.2km/h 89% 0.00in /  0mm 56 W/m2
06:10 60.1 °F /  15.6 °C 57.1 °F /  13.9 °C 30.03in /  1016.8hPa WNW 1mph /  1.6km/h 3mph /  4.8km/h 90% 0.00in /  0mm 69 W/m2
06:20 60.4 °F /  15.8 °C 57.5 °F /  14.2 °C 30.03in /  1016.8hPa WNW 1mph /  1.6km/h 2mph /  3.2km/h 90% 0.00in /  0mm 112 W/m2
06:30 60.6 °F /  15.9 °C 57.4 °F /  14.1 °C 30.03in /  1016.8hPa WNW 1mph /  1.6km/h 2mph /  3.2km/h 89% 0.00in /  0mm 137 W/m2
06:40 61 °F /  16.1 °C 58 °F /  14.4 °C 30.03in /  1016.8hPa Calm   2mph /  3.2km/h 90% 0.00in /  0mm 166 W/m2
06:50 61.3 °F /  16.3 °C 58.1 °F /  14.5 °C 30.03in /  1016.8hPa Calm   2mph /  3.2km/h 89% 0.00in /  0mm 194 W/m2
07:00 61.8 °F /  16.6 °C 58.8 °F /  14.9 °C 30.03in /  1016.8hPa NW 1mph /  1.6km/h 4mph /  6.4km/h 90% 0.00in /  0mm 224 W/m2
07:10 62.4 °F /  16.9 °C 59.1 °F /  15.1 °C 30.03in /  1016.8hPa NW 1mph /  1.6km/h 4mph /  6.4km/h 89% 0.00in /  0mm 254 W/m2
07:20 63.1 °F /  17.3 °C 59.5 °F /  15.3 °C 30.03in /  1016.8hPa NW 1mph /  1.6km/h 3mph /  4.8km/h 88% 0.00in /  0mm 289 W/m2
Knjazevac, Serbia
Compliments of Weather Underground - 2 mb